Time;durP1;ratioP1;P1;durP2;ratioP2;P2;SDS_P1;SDS_P2;PMS_P1;PMS_P2;Temp;Humidity;BMP_temperature;BMP_pressure;BME280_temperature;BME280_humidity;BME280_pressure;Samples;Min_cycle;Max_cycle;Signal;HPM_P1;HPM_P2
2022/07/28 00:00:44;;;;;;;6.53;4.35;;;;;;;21.28;57.14;100335.47;2099348;28;20400;-77
2022/07/28 00:02:07;;;;;;;8.38;4.05;;;;;;;21.30;56.90;100338.13;2097026;28;20076;-76
2022/07/28 00:03:29;;;;;;;9.27;4.20;;;;;;;21.31;57.16;100339.88;2086410;28;20132;-76
2022/07/28 00:04:53;;;;;;;9.40;4.43;;;;;;;21.27;57.12;100339.09;2089077;28;20787;-76
2022/07/28 00:06:16;;;;;;;6.50;4.25;;;;;;;21.28;56.87;100334.59;2097299;28;20126;-76
2022/07/28 00:07:38;;;;;;;8.68;4.05;;;;;;;21.28;56.87;100331.91;2094791;28;20516;-76
2022/07/28 00:09:00;;;;;;;6.90;3.78;;;;;;;21.27;57.03;100335.53;2086353;28;20139;-76
2022/07/28 00:10:22;;;;;;;7.60;3.72;;;;;;;21.27;57.24;100338.22;2091506;28;20044;-76
2022/07/28 00:11:45;;;;;;;6.47;3.75;;;;;;;21.27;57.04;100330.16;2102714;28;20076;-76
2022/07/28 00:13:08;;;;;;;8.02;4.53;;;;;;;21.27;57.25;100333.72;2097125;28;20582;-76
2022/07/28 00:14:30;;;;;;;6.95;4.15;;;;;;;21.28;57.04;100332.78;2094365;28;20044;-76
2022/07/28 00:15:53;;;;;;;7.43;3.72;;;;;;;21.22;57.34;100334.81;2092987;28;20041;-76
2022/07/28 00:17:15;;;;;;;7.65;3.75;;;;;;;21.14;57.41;100335.03;2085079;28;20140;-75
2022/07/28 00:18:38;;;;;;;7.82;4.22;;;;;;;21.15;57.57;100334.13;2089801;28;20071;-76
2022/07/28 00:20:02;;;;;;;6.60;4.35;;;;;;;21.15;57.63;100331.44;2102244;28;20475;-75
2022/07/28 00:21:25;;;;;;;6.97;3.60;;;;;;;21.13;57.57;100332.44;2096680;28;20052;-76
2022/07/28 00:22:46;;;;;;;7.43;4.50;;;;;;;21.14;57.54;100329.66;2093940;28;20143;-75
2022/07/28 00:24:09;;;;;;;7.88;4.70;;;;;;;21.15;57.34;100333.25;2085286;28;20060;-76
2022/07/28 00:25:32;;;;;;;8.55;4.32;;;;;;;21.17;57.39;100326.94;2099800;28;20144;-76
2022/07/28 00:26:53;;;;;;;7.03;3.97;;;;;;;21.18;57.41;100325.13;2096525;28;20052;-76
2022/07/28 00:28:16;;;;;;;6.20;4.15;;;;;;;21.13;57.60;100335.13;2085931;28;20037;-76
2022/07/28 00:29:39;;;;;;;7.60;3.83;;;;;;;21.08;57.85;100332.56;2082895;28;20131;-76
2022/07/28 00:31:00;;;;;;;6.53;3.60;;;;;;;21.05;57.60;100328.22;2089809;28;20056;-76
2022/07/28 00:32:23;;;;;;;10.13;4.03;;;;;;;21.08;57.65;100329.88;2094308;28;20036;-77
2022/07/28 00:33:44;;;;;;;8.10;5.43;;;;;;;21.08;57.54;100328.09;2093894;28;20555;-77
2022/07/28 00:35:09;;;;;;;7.43;4.22;;;;;;;20.96;57.90;100322.25;2093455;28;20049;-77
2022/07/28 00:36:30;;;;;;;7.43;3.95;;;;;;;20.84;58.35;100312.81;2086151;28;20093;-77
2022/07/28 00:37:52;;;;;;;7.13;3.97;;;;;;;20.80;58.74;100329.09;2089168;28;20127;-77
2022/07/28 00:39:14;;;;;;;7.82;3.90;;;;;;;20.79;58.58;100325.53;2091241;28;20109;-76
2022/07/28 00:42:18;;;;;;;6.20;3.90;;;;;;;20.82;58.49;100325.41;2096457;28;20047;-77
2022/07/28 00:43:42;;;;;;;11.25;4.03;;;;;;;20.86;58.25;100323.50;2087132;28;20090;-76
2022/07/28 00:45:05;;;;;;;6.47;4.00;;;;;;;20.91;58.26;100330.47;2089632;28;20040;-77
2022/07/28 00:46:28;;;;;;;7.15;3.97;;;;;;;20.86;58.24;100321.72;2094163;28;20044;-77
2022/07/28 00:47:49;;;;;;;5.82;3.58;;;;;;;20.84;58.59;100330.72;2094303;28;20095;-76
2022/07/28 00:49:14;;;;;;;4.47;3.15;;;;;;;20.84;58.53;100326.25;2092453;28;20041;-76
2022/07/28 00:50:39;;;;;;;7.95;3.85;;;;;;;20.88;58.35;100322.50;2094099;28;20048;-77
2022/07/28 00:52:02;;;;;;;6.65;3.75;;;;;;;20.93;58.42;100331.31;2094163;28;20116;-77
2022/07/28 00:53:25;;;;;;;11.15;3.88;;;;;;;20.94;58.21;100321.44;2098667;28;20044;-77
2022/07/28 00:54:48;;;;;;;9.32;4.05;;;;;;;20.93;58.50;100322.38;2086465;28;20052;-77
2022/07/28 00:56:09;;;;;;;8.02;4.35;;;;;;;20.94;58.54;100322.31;2081618;28;20508;-77
2022/07/28 00:57:32;;;;;;;8.32;5.00;;;;;;;20.96;58.56;100330.31;2091034;28;20057;-77
2022/07/28 00:58:53;;;;;;;10.30;4.30;;;;;;;20.94;58.45;100322.31;2088110;28;20052;-77
2022/07/28 01:00:16;;;;;;;7.28;4.10;;;;;;;20.89;58.89;100312.66;2079082;28;20132;-77
2022/07/28 01:01:38;;;;;;;7.90;3.85;;;;;;;20.88;58.97;100322.50;2099957;28;20143;-77
2022/07/28 01:03:01;;;;;;;7.70;3.83;;;;;;;20.85;58.90;100319.06;2095942;28;20060;-77
2022/07/28 01:04:25;;;;;;;8.88;4.25;;;;;;;20.79;58.97;100316.59;2087461;28;20059;-77
2022/07/28 01:05:55;;;;;;;9.55;4.40;;;;;;;20.79;59.30;100312.13;2085873;28;20079;-77
2022/07/28 01:07:33;;;;;;;6.43;4.07;;;;;;;20.72;59.39;100321.28;2101800;28;20052;-77
2022/07/28 01:09:06;;;;;;;7.03;3.95;;;;;;;20.68;59.37;100312.44;2094332;28;20048;-76
2022/07/28 01:10:45;;;;;;;6.47;3.92;;;;;;;20.53;59.92;100321.03;2095593;28;20118;-77
2022/07/28 01:12:15;;;;;;;7.85;3.92;;;;;;;20.44;60.46;100315.06;2087677;28;20049;-77
2022/07/28 01:13:43;;;;;;;6.40;3.80;;;;;;;20.25;61.11;100322.78;2092299;28;20040;-76
2022/07/28 01:15:16;;;;;;;8.88;4.00;;;;;;;20.14;61.49;100327.59;2079852;28;20041;-77
2022/07/28 01:16:43;;;;;;;6.75;3.97;;;;;;;20.28;61.42;100317.34;2090852;28;20044;-77
2022/07/28 01:18:11;;;;;;;7.75;4.35;;;;;;;20.40;61.04;100319.66;2092780;28;20052;-77
2022/07/28 01:19:38;;;;;;;6.88;3.92;;;;;;;20.54;60.32;100314.72;2094217;28;20327;-77
2022/07/28 01:21:08;;;;;;;7.50;4.25;;;;;;;20.63;60.13;100313.53;2086381;28;20048;-76
2022/07/28 01:22:34;;;;;;;8.27;5.25;;;;;;;20.71;59.67;100315.97;2084701;28;20539;-77
2022/07/28 01:24:10;;;;;;;8.38;4.57;;;;;;;20.78;59.42;100312.16;2091909;28;20052;-76
2022/07/28 01:25:42;;;;;;;7.05;4.00;;;;;;;20.76;59.38;100311.31;2095428;28;20051;-77
2022/07/28 01:27:08;;;;;;;13.75;4.47;;;;;;;20.68;59.98;100309.75;2095483;28;20049;-77
2022/07/28 01:28:43;;;;;;;8.80;4.45;;;;;;;20.74;59.86;100308.72;2094084;28;20563;-77
2022/07/28 01:30:10;;;;;;;7.63;4.05;;;;;;;20.73;60.27;100306.06;2084112;28;20072;-76
2022/07/28 01:31:38;;;;;;;9.63;4.22;;;;;;;20.58;61.00;100302.97;2092057;28;20408;-77
2022/07/28 01:33:07;;;;;;;10.38;4.13;;;;;;;20.39;61.65;100315.22;2094565;28;20535;-76
2022/07/28 01:34:33;;;;;;;9.77;4.25;;;;;;;20.19;62.24;100307.75;2102445;28;20050;-77
2022/07/28 01:36:02;;;;;;;5.85;3.53;;;;;;;20.08;62.71;100311.72;2088091;28;20045;-76
2022/07/28 01:37:25;;;;;;;9.00;4.38;;;;;;;19.92;63.25;100307.72;2084208;28;20041;-75
2022/07/28 01:38:50;;;;;;;6.93;4.18;;;;;;;19.98;63.84;100316.44;2098205;28;20508;-76
2022/07/28 01:40:16;;;;;;;7.70;4.50;;;;;;;20.07;63.61;100316.19;2100546;28;20116;-77
2022/07/28 01:41:41;;;;;;;8.10;3.92;;;;;;;20.25;63.33;100317.41;2086298;28;20084;-77
2022/07/28 01:43:11;;;;;;;7.90;4.38;;;;;;;20.34;62.74;100317.16;2087905;28;20140;-76
2022/07/28 01:44:37;;;;;;;8.93;4.25;;;;;;;20.45;62.68;100320.38;2094209;28;20044;-76
2022/07/28 01:46:01;;;;;;;7.70;4.60;;;;;;;20.59;62.02;100323.50;2084588;28;20405;-77
2022/07/28 01:47:27;;;;;;;6.93;4.32;;;;;;;20.72;61.64;100320.41;2085260;28;20125;-76
2022/07/28 01:48:52;;;;;;;7.78;4.45;;;;;;;20.75;61.38;100314.94;2085537;28;20052;-76
2022/07/28 01:50:18;;;;;;;10.18;5.28;;;;;;;20.78;60.99;100313.03;2091918;28;20175;-76
2022/07/28 01:51:41;;;;;;;8.02;4.80;;;;;;;20.76;61.02;100312.19;2093886;28;20036;-76
2022/07/28 01:53:05;;;;;;;7.35;4.35;;;;;;;20.78;61.06;100325.56;2091533;28;20067;-76
2022/07/28 01:54:29;;;;;;;10.57;4.97;;;;;;;20.80;61.06;100323.72;2092470;28;20075;-76
2022/07/28 01:55:53;;;;;;;7.65;4.40;;;;;;;20.82;61.36;100317.34;2093609;28;20489;-76
2022/07/28 01:57:18;;;;;;;6.55;4.13;;;;;;;20.79;61.35;100316.59;2085347;28;20837;-76
2022/07/28 01:58:43;;;;;;;9.30;4.20;;;;;;;20.74;61.66;100324.81;2091230;28;20074;-76
2022/07/28 02:00:11;;;;;;;7.07;4.20;;;;;;;20.52;62.67;100316.56;2080080;28;20148;-76
2022/07/28 02:01:38;;;;;;;9.50;4.75;;;;;;;20.52;62.94;100318.38;2091960;28;20047;-76
2022/07/28 02:03:05;;;;;;;8.55;4.38;;;;;;;20.62;62.77;100322.50;2101923;28;20068;-77
2022/07/28 02:04:30;;;;;;;7.25;4.22;;;;;;;20.70;62.62;100315.09;2088045;28;20052;-76
2022/07/28 02:05:56;;;;;;;9.38;4.63;;;;;;;20.78;62.51;100330.94;2089732;28;20040;-76
2022/07/28 02:07:23;;;;;;;7.63;4.32;;;;;;;20.83;62.25;100320.91;2082626;28;20516;-76
2022/07/28 02:08:46;;;;;;;7.63;4.95;;;;;;;20.90;62.07;100320.66;2085033;28;20042;-77
2022/07/28 02:10:11;;;;;;;9.07;4.57;;;;;;;20.94;61.88;100321.44;2085719;28;20079;-77
2022/07/28 02:11:40;;;;;;;9.30;4.65;;;;;;;20.92;62.02;100323.31;2083888;28;20511;-76
2022/07/28 02:13:04;;;;;;;6.38;3.85;;;;;;;20.92;61.70;100320.63;2084624;28;20045;-77
2022/07/28 02:14:27;;;;;;;8.48;4.80;;;;;;;20.94;61.96;100316.06;2091109;28;20506;-76
2022/07/28 02:15:50;;;;;;;7.22;4.30;;;;;;;20.95;61.58;100313.31;2085725;28;20041;-76
2022/07/28 02:17:16;;;;;;;8.48;4.43;;;;;;;20.95;61.59;100318.69;2100031;28;20044;-77
2022/07/28 02:18:42;;;;;;;8.40;4.25;;;;;;;20.92;61.53;100313.44;2086933;28;20135;-77
2022/07/28 02:20:05;;;;;;;9.40;4.18;;;;;;;20.71;62.11;100315.97;2097792;28;20514;-77
2022/07/28 02:21:31;;;;;;;9.52;4.38;;;;;;;20.59;62.66;100311.88;2097797;28;20442;-76
2022/07/28 02:22:55;;;;;;;8.73;4.43;;;;;;;20.64;62.63;100313.50;2087453;28;20475;-77
2022/07/28 02:24:21;;;;;;;9.20;4.30;;;;;;;20.55;62.88;100308.41;2101205;28;20086;-76
2022/07/28 02:25:44;;;;;;;7.90;4.07;;;;;;;20.45;62.98;100304.28;2088494;28;20110;-76
2022/07/28 02:27:13;;;;;;;7.40;4.18;;;;;;;20.42;63.46;100304.38;2092628;28;20099;-77
2022/07/28 02:28:38;;;;;;;9.57;4.53;;;;;;;20.50;63.67;100310.38;2104413;28;20554;-77
2022/07/28 02:30:06;;;;;;;8.20;4.55;;;;;;;20.63;63.45;100301.00;2085439;28;20079;-77
2022/07/28 02:31:32;;;;;;;9.85;4.38;;;;;;;20.71;62.86;100306.13;2092897;28;20037;-77
2022/07/28 02:32:59;;;;;;;8.93;4.57;;;;;;;20.58;62.98;100305.66;2084961;28;20049;-77
2022/07/28 02:34:26;;;;;;;7.35;4.43;;;;;;;20.25;63.70;100296.84;2089670;28;20131;-76
2022/07/28 02:35:54;;;;;;;7.95;3.90;;;;;;;20.16;64.53;100305.16;2095550;28;20056;-77
2022/07/28 02:37:19;;;;;;;10.90;4.50;;;;;;;20.32;64.53;100316.28;2093372;28;20040;-77
2022/07/28 02:38:46;;;;;;;9.70;4.50;;;;;;;20.38;63.98;100302.72;2093597;28;20423;-76
2022/07/28 02:40:13;;;;;;;9.95;4.80;;;;;;;20.48;63.73;100303.31;2101755;28;20227;-77
2022/07/28 02:41:39;;;;;;;7.55;4.50;;;;;;;20.59;63.23;100304.72;2097960;28;20052;-77
2022/07/28 02:43:03;;;;;;;10.43;4.63;;;;;;;20.69;62.85;100311.53;2098417;28;20131;-77
2022/07/28 02:44:30;;;;;;;9.45;5.30;;;;;;;20.74;62.35;100306.03;2086445;28;20088;-77
2022/07/28 02:45:55;;;;;;;8.75;4.72;;;;;;;20.75;62.50;100306.88;2093881;28;20045;-77
2022/07/28 02:47:23;;;;;;;10.48;4.88;;;;;;;20.75;62.20;100301.50;2095177;28;20191;-76
2022/07/28 02:48:49;;;;;;;7.40;4.60;;;;;;;20.77;62.19;100307.72;2087241;28;20045;-77
2022/07/28 02:50:15;;;;;;;9.13;4.22;;;;;;;20.75;62.28;100297.03;2093761;28;20082;-77
2022/07/28 02:51:39;;;;;;;8.52;4.82;;;;;;;20.71;62.84;100292.69;2095164;28;20516;-77
2022/07/28 02:53:04;;;;;;;7.63;4.90;;;;;;;20.74;62.63;100297.97;2095312;28;20099;-77
2022/07/28 02:54:27;;;;;;;7.78;4.10;;;;;;;20.60;62.68;100302.91;2085387;28;20557;-75
2022/07/28 02:55:51;;;;;;;6.95;4.50;;;;;;;20.35;63.63;100305.50;2091527;28;20094;-77
2022/07/28 02:57:16;;;;;;;9.85;4.90;;;;;;;20.32;64.25;100310.94;2091732;28;20044;-77
2022/07/28 02:58:39;;;;;;;8.20;4.80;;;;;;;20.46;64.20;100310.53;2087437;28;20056;-77
2022/07/28 03:00:01;;;;;;;6.88;4.50;;;;;;;20.56;63.59;100307.50;2092236;28;20131;-77
2022/07/28 03:01:24;;;;;;;;;;;;;;;20.59;63.22;100307.41;2095124;28;20053;-76
2022/07/28 03:02:47;;;;;;;7.22;4.63;;;;;;;20.62;63.25;100314.44;2086989;28;19955;-77
2022/07/28 03:04:12;;;;;;;6.57;4.40;;;;;;;20.69;62.92;100314.22;2082504;28;20564;-77
2022/07/28 03:05:36;;;;;;;10.70;5.30;;;;;;;20.70;62.77;100312.41;2074748;28;20060;-76
2022/07/28 03:06:58;;;;;;;8.85;4.45;;;;;;;20.61;62.96;100321.63;2081191;28;20567;-76
2022/07/28 03:08:21;;;;;;;8.18;4.53;;;;;;;20.63;63.02;100318.91;2083566;28;20079;-77
2022/07/28 03:09:47;;;;;;;10.40;4.80;;;;;;;20.67;62.66;100308.03;2092866;28;20144;-76
2022/07/28 03:11:11;;;;;;;11.45;4.80;;;;;;;20.72;62.61;100309.69;2085888;28;20132;-76
2022/07/28 03:12:32;;;;;;;9.00;4.63;;;;;;;20.75;62.81;100309.56;2091870;28;20068;-76
2022/07/28 03:13:55;;;;;;;7.88;4.78;;;;;;;20.79;62.51;100311.22;2094810;28;20036;-76
2022/07/28 03:15:19;;;;;;;7.28;4.22;;;;;;;20.71;62.55;100314.16;2094961;28;20048;-76
2022/07/28 03:16:40;;;;;;;8.13;4.82;;;;;;;20.71;62.68;100313.28;2084791;28;20076;-75
2022/07/28 03:18:03;;;;;;;9.73;5.25;;;;;;;20.73;62.75;100311.44;2097710;28;20365;-77
2022/07/28 03:19:25;;;;;;;12.32;5.75;;;;;;;20.78;62.40;100313.03;2096671;28;20135;-76
2022/07/28 03:20:49;;;;;;;14.98;5.25;;;;;;;20.78;62.42;100314.84;2094730;28;20072;-77
2022/07/28 03:22:11;;;;;;;7.95;4.38;;;;;;;20.72;62.21;100310.56;2086995;28;20064;-76
2022/07/28 03:23:38;;;;;;;10.63;5.03;;;;;;;20.49;63.17;100315.78;2083769;28;20049;-77
2022/07/28 03:25:00;;;;;;;7.50;4.70;;;;;;;20.48;63.84;100308.69;2093336;28;20048;-77
2022/07/28 03:26:31;;;;;;;7.90;4.25;;;;;;;20.60;63.53;100313.66;2092223;28;20052;-77
2022/07/28 03:27:56;;;;;;;10.30;4.80;;;;;;;20.68;63.18;100315.13;2094899;28;20048;-77
2022/07/28 03:29:19;;;;;;;7.68;4.50;;;;;;;20.73;63.03;100315.00;2085088;28;20102;-77
2022/07/28 03:30:46;;;;;;;8.55;4.82;;;;;;;20.54;63.25;100316.53;2082954;28;20044;-76
2022/07/28 03:32:08;;;;;;;7.55;4.35;;;;;;;20.42;63.91;100322.25;2093340;28;20063;-77
2022/07/28 03:33:31;;;;;;;7.72;4.80;;;;;;;20.51;63.65;100320.19;2086161;28;20037;-77
2022/07/28 03:34:55;;;;;;;8.07;4.88;;;;;;;20.63;63.45;100318.91;2092587;28;20052;-77
2022/07/28 03:36:27;;;;;;;6.93;4.10;;;;;;;20.71;62.98;100321.34;2084197;28;20052;-76
2022/07/28 03:37:55;;;;;;;8.88;4.97;;;;;;;20.67;63.08;100324.13;2100078;28;20567;-76
2022/07/28 03:39:17;;;;;;;13.73;5.00;;;;;;;20.77;63.16;100322.00;2086108;28;20049;-76
2022/07/28 03:40:43;;;;;;;12.88;4.63;;;;;;;20.84;62.92;100326.25;2091984;28;20373;-76
2022/07/28 03:42:05;;;;;;;8.05;4.07;;;;;;;20.71;63.23;100324.91;2086575;28;20045;-75
2022/07/28 03:43:28;;;;;;;8.77;4.50;;;;;;;20.70;63.48;100331.19;2089706;28;20047;-76
2022/07/28 03:44:50;;;;;;;8.57;4.35;;;;;;;20.80;63.46;100331.78;2093059;28;20032;-77
2022/07/28 03:46:13;;;;;;;;;;;;;;;20.90;63.20;100319.78;2093803;28;20067;-76
2022/07/28 03:47:34;;;;;;;8.00;4.00;;;;;;;20.96;63.08;100325.81;2086315;28;20439;-77
2022/07/28 03:48:56;;;;;;;9.75;4.88;;;;;;;21.10;62.85;100319.97;2091806;28;20052;-77
2022/07/28 03:50:22;;;;;;;9.35;4.70;;;;;;;21.28;62.27;100326.53;2097093;28;20211;-77
2022/07/28 03:51:46;;;;;;;10.35;4.40;;;;;;;21.44;61.83;100331.34;2094135;28;20067;-78
2022/07/28 03:53:16;;;;;;;9.20;5.22;;;;;;;21.58;61.60;100330.84;2093282;28;20048;-77
2022/07/28 03:54:39;;;;;;;11.40;4.50;;;;;;;21.71;61.34;100331.25;2094456;28;20151;-77
2022/07/28 03:56:02;;;;;;;9.00;4.13;;;;;;;21.69;61.35;100325.06;2092935;28;20040;-78
2022/07/28 03:57:24;;;;;;;10.07;4.47;;;;;;;21.75;61.35;100327.50;2086548;28;20049;-77
2022/07/28 03:58:47;;;;;;;8.80;4.80;;;;;;;21.88;61.01;100331.50;2085941;28;20488;-77
2022/07/28 04:00:11;;;;;;;11.27;4.53;;;;;;;22.03;60.72;100320.19;2092448;28;20075;-77
2022/07/28 04:01:35;;;;;;;8.23;4.50;;;;;;;22.15;60.64;100324.22;2086543;28;20268;-76
2022/07/28 04:02:58;;;;;;;10.68;4.90;;;;;;;22.25;60.39;100321.09;2081372;28;20053;-77
2022/07/28 04:04:20;;;;;;;6.90;4.18;;;;;;;22.39;60.47;100322.38;2088323;28;20135;-76
2022/07/28 04:05:43;;;;;;;10.63;4.93;;;;;;;22.51;60.50;100321.91;2086173;28;20059;-76
2022/07/28 04:07:07;;;;;;;8.38;3.75;;;;;;;22.65;60.27;100330.25;2091548;28;20105;-77
2022/07/28 04:08:28;;;;;;;8.30;4.13;;;;;;;22.72;60.01;100329.06;2093060;28;20060;-76
2022/07/28 04:09:50;;;;;;;8.18;4.05;;;;;;;22.82;59.77;100329.63;2092288;28;20054;-77
2022/07/28 04:11:12;;;;;;;7.88;4.00;;;;;;;22.97;59.79;100334.38;2094486;28;20040;-76
2022/07/28 04:12:46;;;;;;;6.72;3.90;;;;;;;23.13;59.53;100339.97;2094389;28;20036;-77
2022/07/28 04:14:08;;;;;;;6.75;3.17;;;;;;;23.26;59.56;100343.88;2086945;28;20040;-77
2022/07/28 04:15:31;;;;;;;8.43;4.43;;;;;;;23.35;59.12;100340.78;2083322;28;20069;-77
2022/07/28 04:16:54;;;;;;;15.48;5.97;;;;;;;23.45;58.73;100339.44;2091619;28;20443;-76
2022/07/28 04:18:15;;;;;;;8.15;3.60;;;;;;;23.58;58.80;100337.97;2094181;28;20062;-77
2022/07/28 04:19:38;;;;;;;8.65;3.88;;;;;;;23.69;58.55;100338.41;2085361;28;20516;-77
2022/07/28 04:20:59;;;;;;;7.65;3.22;;;;;;;23.86;58.52;100339.44;2093342;28;20070;-76
2022/07/28 04:22:23;;;;;;;9.02;4.30;;;;;;;23.98;58.37;100342.44;2087356;28;20417;-76
2022/07/28 04:23:46;;;;;;;8.63;3.78;;;;;;;24.10;58.09;100335.59;2083290;28;20056;-76
2022/07/28 04:25:11;;;;;;;6.90;3.70;;;;;;;24.25;57.77;100340.31;2083607;28;20060;-76
2022/07/28 04:26:34;;;;;;;8.90;6.13;;;;;;;24.41;57.65;100335.06;2084382;28;20047;-77
2022/07/28 04:27:55;;;;;;;10.40;4.20;;;;;;;24.55;57.22;100336.13;2087022;28;20063;-76
2022/07/28 04:29:18;;;;;;;7.07;3.75;;;;;;;24.72;57.04;100339.81;2088460;28;20069;-77
2022/07/28 04:30:39;;;;;;;7.35;3.38;;;;;;;24.87;56.64;100334.56;2077635;28;20394;-75
2022/07/28 04:32:01;;;;;;;9.10;4.13;;;;;;;24.99;56.79;100343.88;2092435;28;20049;-77
2022/07/28 04:33:23;;;;;;;11.48;3.60;;;;;;;25.14;56.23;100340.38;2099861;28;20052;-76
2022/07/28 04:34:46;;;;;;;9.15;3.50;;;;;;;25.30;56.02;100337.78;2080621;28;20441;-76
2022/07/28 04:36:07;;;;;;;8.10;3.40;;;;;;;25.40;55.66;100347.19;2091240;28;20508;-77
2022/07/28 04:37:32;;;;;;;6.63;3.42;;;;;;;25.48;55.62;100350.31;2083035;28;20130;-76
2022/07/28 04:38:58;;;;;;;6.70;3.50;;;;;;;25.65;55.52;100338.66;2090287;28;20079;-76
2022/07/28 04:40:20;;;;;;;6.60;3.60;;;;;;;25.83;55.00;100345.78;2091989;28;20516;-76
2022/07/28 04:41:43;;;;;;;7.88;4.70;;;;;;;26.03;54.60;100351.00;2079987;28;20037;-77
2022/07/28 04:43:05;;;;;;;6.88;3.67;;;;;;;26.25;54.37;100356.13;2086297;28;20036;-76
2022/07/28 04:44:27;;;;;;;8.10;3.20;;;;;;;26.43;54.10;100346.97;2092421;28;20266;-76
2022/07/28 04:45:49;;;;;;;7.63;3.00;;;;;;;26.61;53.10;100345.06;2091966;28;20558;-76
2022/07/28 04:47:13;;;;;;;5.95;3.25;;;;;;;26.80;52.85;100355.69;2085681;28;20556;-76
2022/07/28 04:48:35;;;;;;;10.07;3.83;;;;;;;27.02;52.28;100349.94;2083483;28;20095;-77
2022/07/28 04:49:58;;;;;;;10.00;3.80;;;;;;;27.23;52.14;100349.53;2083303;28;20160;-77
2022/07/28 04:51:21;;;;;;;9.00;3.10;;;;;;;27.43;51.74;100352.91;2083268;28;20143;-77
2022/07/28 04:52:48;;;;;;;6.65;3.30;;;;;;;27.63;51.36;100352.59;2083367;28;20060;-77
2022/07/28 04:54:10;;;;;;;6.93;3.10;;;;;;;27.86;50.87;100353.84;2091395;28;20071;-76
2022/07/28 04:55:33;;;;;;;6.32;3.72;;;;;;;28.07;50.39;100355.22;2084303;28;20394;-77
2022/07/28 04:56:56;;;;;;;7.60;2.67;;;;;;;28.31;49.54;100358.25;2088160;28;20078;-77
2022/07/28 04:58:18;;;;;;;5.85;3.08;;;;;;;28.45;49.03;100353.66;2085170;28;20853;-76
2022/07/28 04:59:40;;;;;;;4.93;2.83;;;;;;;28.61;48.15;100353.56;2091363;28;20048;-76
2022/07/28 05:01:03;;;;;;;8.45;3.30;;;;;;;28.80;47.49;100350.53;2085566;28;20385;-77
2022/07/28 05:02:24;;;;;;;7.15;3.47;;;;;;;29.08;46.36;100350.38;2087335;28;20128;-76
2022/07/28 05:03:47;;;;;;;5.03;3.30;;;;;;;29.37;45.25;100358.47;2085743;28;20110;-76
2022/07/28 05:05:09;;;;;;;6.22;3.70;;;;;;;29.54;43.54;100358.16;2097998;28;20062;-76
2022/07/28 05:06:32;;;;;;;8.25;3.47;;;;;;;29.77;42.86;100360.16;2100768;28;20044;-76
2022/07/28 05:07:55;;;;;;;10.73;3.80;;;;;;;30.07;42.78;100362.56;2094936;28;20071;-77
2022/07/28 05:09:18;;;;;;;11.65;3.65;;;;;;;30.22;42.63;100363.31;2093637;28;20521;-77
2022/07/28 05:10:40;;;;;;;9.05;3.67;;;;;;;30.44;42.49;100371.69;2093824;28;20052;-77
2022/07/28 05:12:04;;;;;;;7.13;3.88;;;;;;;30.69;42.28;100366.19;2093709;28;20044;-77
2022/07/28 05:13:26;;;;;;;5.50;3.28;;;;;;;30.96;41.67;100365.13;2090537;28;20150;-77
2022/07/28 05:14:49;;;;;;;7.18;3.58;;;;;;;31.21;40.88;100367.75;2091530;28;20043;-75
2022/07/28 05:16:11;;;;;;;7.47;3.20;;;;;;;31.45;40.77;100365.84;2093260;28;20047;-77
2022/07/28 05:17:33;;;;;;;9.93;3.95;;;;;;;31.67;40.01;100370.53;2093363;28;20053;-77
2022/07/28 05:18:55;;;;;;;8.32;3.45;;;;;;;31.84;39.30;100374.66;2093832;28;20101;-76
2022/07/28 05:20:17;;;;;;;6.32;3.50;;;;;;;32.03;38.10;100367.63;2085445;28;20053;-77
2022/07/28 05:21:39;;;;;;;7.72;3.65;;;;;;;32.17;37.82;100372.00;2098932;28;20629;-77
2022/07/28 05:23:03;;;;;;;6.30;3.50;;;;;;;32.38;37.20;100377.59;2090157;28;20126;-76
2022/07/28 05:24:25;;;;;;;8.25;3.65;;;;;;;32.57;37.23;100379.69;2091892;28;20117;-77
2022/07/28 05:25:48;;;;;;;13.50;3.35;;;;;;;32.64;37.47;100379.06;2101434;28;20104;-77
2022/07/28 05:27:10;;;;;;;8.35;4.00;;;;;;;32.71;36.78;100376.72;2096620;28;20040;-76
2022/07/28 05:28:34;;;;;;;7.80;3.90;;;;;;;32.93;35.91;100378.56;2085249;28;20754;-77
2022/07/28 05:29:55;;;;;;;7.18;3.88;;;;;;;33.08;34.92;100372.66;2098705;28;20135;-77
2022/07/28 05:31:18;;;;;;;6.28;3.90;;;;;;;33.12;33.74;100370.53;2094852;28;20044;-78
2022/07/28 05:32:40;;;;;;;6.63;3.50;;;;;;;33.06;33.08;100374.66;2089280;28;20052;-78
2022/07/28 05:34:02;;;;;;;;;;;;;;;32.91;33.74;100381.41;2085735;28;20079;-79
2022/07/28 05:35:26;;;;;;;6.07;3.78;;;;;;;33.09;33.56;100382.59;2091429;28;20349;-78
2022/07/28 05:36:49;;;;;;;5.78;3.65;;;;;;;33.33;33.11;100387.91;2093130;28;20052;-77
2022/07/28 05:38:14;;;;;;;6.00;4.13;;;;;;;33.58;32.75;100383.94;2099962;28;20580;-78
2022/07/28 05:39:36;;;;;;;8.38;3.78;;;;;;;33.80;32.68;100382.97;2084123;28;20496;-77
2022/07/28 05:41:00;;;;;;;8.15;4.65;;;;;;;34.01;32.22;100383.81;2090085;28;20123;-78
2022/07/28 05:42:21;;;;;;;6.85;4.07;;;;;;;34.27;31.71;100389.75;2085656;28;20056;-78
2022/07/28 05:43:44;;;;;;;8.00;3.50;;;;;;;34.43;31.38;100387.38;2081469;28;20103;-78
2022/07/28 05:45:09;;;;;;;5.18;3.55;;;;;;;34.49;30.99;100389.56;2090356;28;20036;-79
2022/07/28 05:46:31;;;;;;;7.90;3.47;;;;;;;34.62;30.79;100383.84;2086113;28;20047;-78
2022/07/28 05:47:54;;;;;;;8.00;3.80;;;;;;;34.75;30.78;100388.09;2091071;28;20052;-79
2022/07/28 05:49:16;;;;;;;8.95;4.22;;;;;;;34.91;30.87;100386.72;2100774;28;20303;-78
2022/07/28 05:50:39;;;;;;;8.65;4.50;;;;;;;35.03;31.08;100389.19;2095851;28;20402;-79
2022/07/28 05:52:02;;;;;;;6.13;3.65;;;;;;;35.11;31.15;100397.59;2084890;28;20045;-78
2022/07/28 05:53:26;;;;;;;6.93;3.97;;;;;;;35.21;30.99;100383.88;2091097;28;20045;-79
2022/07/28 05:54:48;;;;;;;6.07;3.72;;;;;;;35.30;30.90;100394.03;2094001;28;20072;-78
2022/07/28 05:56:10;;;;;;;7.18;4.00;;;;;;;35.37;30.85;100402.56;2092481;28;20048;-78
2022/07/28 05:57:31;;;;;;;6.53;4.10;;;;;;;35.43;30.78;100396.47;2081975;28;20424;-77
2022/07/28 05:58:54;;;;;;;5.72;3.28;;;;;;;35.51;30.84;100393.88;2099361;28;20048;-77
2022/07/28 06:00:19;;;;;;;6.35;3.80;;;;;;;35.49;30.67;100388.53;2092167;28;20079;-77
2022/07/28 06:01:41;;;;;;;9.82;3.63;;;;;;;35.36;30.83;100396.19;2098909;28;20074;-77
2022/07/28 06:03:04;;;;;;;6.13;3.53;;;;;;;35.38;30.75;100387.81;2090147;28;20140;-77
2022/07/28 06:04:27;;;;;;;5.32;3.40;;;;;;;35.37;30.75;100397.06;2093314;28;20492;-77
2022/07/28 06:05:50;;;;;;;10.50;4.00;;;;;;;35.41;30.78;100395.75;2099354;28;20135;-76
2022/07/28 06:07:12;;;;;;;5.43;3.83;;;;;;;35.43;30.62;100386.38;2088951;28;20088;-77
2022/07/28 06:08:37;;;;;;;6.57;4.07;;;;;;;35.43;30.59;100391.84;2097264;28;20115;-77
2022/07/28 06:10:00;;;;;;;5.10;3.45;;;;;;;35.40;30.82;100389.38;2089233;28;21078;-78
2022/07/28 06:11:22;;;;;;;7.72;4.05;;;;;;;35.32;30.74;100391.09;2081177;28;20056;-77
2022/07/28 06:12:46;;;;;;;3.92;3.25;;;;;;;35.28;30.63;100393.28;2080528;28;20056;-78
2022/07/28 06:14:09;;;;;;;6.38;3.80;;;;;;;35.20;30.88;100390.34;2092556;28;20126;-77
2022/07/28 06:15:31;;;;;;;7.90;4.07;;;;;;;35.28;30.82;100389.66;2084664;28;20049;-78
2022/07/28 06:16:53;;;;;;;6.57;3.53;;;;;;;35.37;30.95;100397.06;2094885;28;20653;-78
2022/07/28 06:18:16;;;;;;;6.72;3.83;;;;;;;35.35;31.16;100399.94;2093162;28;20047;-78
2022/07/28 06:19:38;;;;;;;7.30;3.60;;;;;;;35.35;30.81;100388.97;2092825;28;20122;-78
2022/07/28 06:21:01;;;;;;;6.07;3.90;;;;;;;35.34;30.86;100398.19;2092939;28;20072;-78
2022/07/28 06:22:24;;;;;;;6.28;4.13;;;;;;;35.13;31.18;100381.81;2097169;28;20117;-76
2022/07/28 06:23:48;;;;;;;7.05;4.00;;;;;;;35.07;31.45;100389.75;2090673;28;20113;-77
2022/07/28 06:25:15;;;;;;;8.38;4.38;;;;;;;35.10;31.66;100387.63;2091606;28;20068;-77
2022/07/28 06:26:38;;;;;;;9.25;4.00;;;;;;;35.15;32.17;100387.16;2085370;28;20527;-77
2022/07/28 06:28:03;;;;;;;6.95;4.18;;;;;;;35.26;32.19;100384.31;2080814;28;20045;-77
2022/07/28 06:29:26;;;;;;;6.45;4.10;;;;;;;35.36;31.94;100382.47;2096957;28;20065;-77
2022/07/28 06:30:49;;;;;;;6.05;3.95;;;;;;;35.40;31.76;100381.16;2093260;28;20076;-78
2022/07/28 06:32:12;;;;;;;6.85;3.55;;;;;;;35.42;32.04;100379.13;2098551;28;20036;-77